Contact Us:
Email: info@sawbill.com
Phone: (218)663-7150
Fax: (218)663-7980
Mail: 4620 Sawbill Trail
Box 2129
Tofte, MN 55615


Powered by
Movable Type 3.15
 
Sawbill Weather History Archives: February 2009
Current Sawbill Weather History | « January 2009 | March 2009 »


Date

High
Temperature

Low
Temperature

Barometric
Pressure

Relative
Humidity 7AM

9 AM
Temperature

Moisture

Snow

2/28/09 14 -6 30.47 51% -6 0
2/27/09 3 -20 30.30 75% -12 0
2/26/09 10 -12 30.21 75% -12 .08" 1"
2/25/09 26 6 30.03 74% 7 .21" 2"
2/24/09 29 11 29.77 81% 21 .15" 1.5"
2/23/09 14 -15 30.00 55% 11 0
2/22/09 14 -15 30.45 56% -14 0
2/21/09 19 -4 30.21 63% 0 Trace Trace
2/20/09 20 -10 29.94 59% -4 0
2/19/09 10 -10 29.94 73% -10 0
2/18/09 7 -4 29.94 73% -4 0
2/17/09 22 0 29.71 73% 0 .13" 1.5"
2/16/09 24 12 29.80 85% 20 .1" 1.5"
2/15/09 15 0 30.12 58% 12 Trace Trace
2/14/09 15 6 30.27 67% 6 0
2/13/09 23 10 30.06 74% 10 .08" 1.5"
2/12/09 30 21 30.09 81% 21 .18" 2"
2/11/09 35 30 29.71 94% 30 .07" 1"
2/10/09 36 33 29.59 98% 36 .14"
2/9/09 37 30 29.21 94% 36 .54" Trace
2/8/09 34 12 30.02 91% 21 0
2/7/09 30 12 30.06 63% 17 0
2/6/09 31 12 29.53 94% 30 0
2/5/09 21 3 29.88 68% 12 Trace Trace
2/4/09 9 -24 29.91 66% 9 0
2/3/09 3 -25 30.35 66% -24 0
2/2/09 11 -4 30.24 66% -4 Trace Trace
2/1/09 15 7 29.85 66% 8 .15" 3"
 


Home I Trip Planning I Rentals and Outfitting I Reservations I Campgrounds I Sawbill Store I Sawbill News I Contact

© 1997 - 2017, Sawbill Canoe Outfitters, Inc. I Privacy Policy